Time;durP1;ratioP1;P1;durP2;ratioP2;P2;SDS_P1;SDS_P2;PMS_P1;PMS_P2;Temp;Humidity;BMP_temperature;BMP_pressure;BME280_temperature;BME280_humidity;BME280_pressure;Samples;Min_cycle;Max_cycle;Signal;HPM_P1;HPM_P2
2023/08/18 00:01:25;;;;;;;11.40;9.50;;;;;;;17.59;100.00;98281.21;108921;1256;59975;-79
2023/08/18 00:03:51;;;;;;;14.60;9.20;;;;;;;17.56;100.00;98277.40;109017;1257;72722;-80
2023/08/18 00:06:18;;;;;;;12.40;8.70;;;;;;;17.53;100.00;98274.39;108994;1257;57905;-80
2023/08/18 00:08:44;;;;;;;10.80;8.40;;;;;;;17.49;100.00;98272.30;108996;1257;57582;-79
2023/08/18 00:11:11;;;;;;;13.20;9.40;;;;;;;17.44;100.00;98271.45;108996;1257;59972;-80
2023/08/18 00:13:38;;;;;;;13.00;8.10;;;;;;;17.39;100.00;98268.92;108979;1256;57679;-79
2023/08/18 00:16:05;;;;;;;10.50;9.30;;;;;;;17.36;100.00;98269.23;109017;1257;72758;-79
2023/08/18 00:18:32;;;;;;;24.90;11.50;;;;;;;17.31;100.00;98269.80;108907;1257;70773;-80
2023/08/18 00:20:58;;;;;;;13.30;9.20;;;;;;;17.28;100.00;98259.00;108986;1256;57984;-80
2023/08/18 00:23:24;;;;;;;13.70;8.90;;;;;;;17.27;100.00;98256.14;109015;1257;57451;-80
2023/08/18 00:25:51;;;;;;;15.20;9.30;;;;;;;17.25;100.00;98256.05;108996;1258;57762;-80
2023/08/18 00:28:18;;;;;;;9.60;7.90;;;;;;;17.24;100.00;98257.07;108993;1257;71799;-80
2023/08/18 00:30:45;;;;;;;11.40;8.10;;;;;;;17.23;100.00;98260.88;108923;1257;69677;-80
2023/08/18 00:33:11;;;;;;;12.60;8.50;;;;;;;17.23;100.00;98254.98;108992;1256;72250;-80
2023/08/18 00:35:38;;;;;;;11.80;9.00;;;;;;;17.23;100.00;98254.92;108991;1256;57847;-80
2023/08/18 00:38:04;;;;;;;16.80;9.70;;;;;;;17.22;100.00;98253.95;108994;1257;57981;-80
2023/08/18 00:40:30;;;;;;;12.20;9.10;;;;;;;17.20;100.00;98245.97;109013;1256;57396;-80
2023/08/18 00:42:57;;;;;;;14.10;9.30;;;;;;;17.19;100.00;98242.77;108990;1257;58132;-80
2023/08/18 00:45:23;;;;;;;13.80;9.10;;;;;;;17.18;100.00;98241.15;108996;1256;57809;-80
2023/08/18 00:47:50;;;;;;;11.00;9.50;;;;;;;17.16;100.00;98245.52;108983;1257;57355;-80
2023/08/18 00:50:17;;;;;;;17.90;9.80;;;;;;;17.15;100.00;98238.59;108923;1257;57421;-80
2023/08/18 00:52:44;;;;;;;23.90;10.00;;;;;;;17.14;100.00;98238.56;109000;1257;71409;-80
2023/08/18 00:55:10;;;;;;;15.60;9.80;;;;;;;17.14;100.00;98238.14;108985;1257;57409;-80
2023/08/18 00:57:37;;;;;;;13.10;8.90;;;;;;;17.11;100.00;98233.17;108987;1256;57666;-80
2023/08/18 01:00:04;;;;;;;12.20;9.10;;;;;;;17.07;100.00;98236.19;108897;1257;57710;-80
2023/08/18 01:02:31;;;;;;;9.40;8.40;;;;;;;17.04;100.00;98234.83;108976;1257;60179;-79
2023/08/18 01:05:00;;;;;;;9.30;8.40;;;;;;;16.99;100.00;98236.79;108836;1257;73846;-79
2023/08/18 01:07:27;;;;;;;13.80;9.00;;;;;;;16.97;100.00;98237.46;108995;1257;70146;-80
2023/08/18 01:09:54;;;;;;;11.20;7.70;;;;;;;16.94;100.00;98234.21;108984;1256;73148;-80
2023/08/18 01:12:30;;;;;;;11.60;8.50;;;;;;;16.92;100.00;98236.99;108888;1256;60114;-80
2023/08/18 01:15:03;;;;;;;9.30;7.30;;;;;;;16.87;100.00;98239.42;108930;1257;60172;-80
2023/08/18 01:18:03;;;;;;;11.00;7.90;;;;;;;16.82;100.00;98241.64;109258;1254;72176;-80
2023/08/18 01:20:30;;;;;;;10.50;8.60;;;;;;;16.79;100.00;98239.94;109323;1253;70085;-80
2023/08/18 01:22:57;;;;;;;14.70;9.50;;;;;;;16.77;100.00;98236.73;109242;1254;73566;-81
2023/08/18 01:25:24;;;;;;;12.00;9.40;;;;;;;16.78;100.00;98233.88;109258;1254;57946;-80
2023/08/18 01:27:51;;;;;;;14.40;11.20;;;;;;;16.80;100.00;98233.20;109294;1254;60010;-80
2023/08/18 01:30:18;;;;;;;16.10;11.30;;;;;;;16.85;100.00;98232.82;109265;1253;72051;-80
2023/08/18 01:32:53;;;;;;;12.10;9.90;;;;;;;16.88;100.00;98235.50;109271;1254;72150;-80
2023/08/18 01:35:20;;;;;;;17.90;11.40;;;;;;;16.91;100.00;98234.45;109098;1253;72632;-80
2023/08/18 01:37:47;;;;;;;12.90;11.60;;;;;;;16.90;100.00;98236.21;109195;1254;59175;-80
2023/08/18 01:40:13;;;;;;;15.50;10.50;;;;;;;16.89;100.00;98228.55;109182;1252;61158;-79
2023/08/18 01:42:40;;;;;;;14.10;11.00;;;;;;;16.89;100.00;98227.63;109065;1254;72324;-79
2023/08/18 01:45:11;;;;;;;22.20;11.10;;;;;;;16.89;100.00;98225.20;109172;1254;69860;-80
2023/08/18 01:47:38;;;;;;;15.70;10.60;;;;;;;16.88;100.00;98220.95;109288;1253;71783;-79
2023/08/18 01:50:05;;;;;;;15.30;11.30;;;;;;;16.88;100.00;98221.94;109279;1253;59187;-79
2023/08/18 01:52:31;;;;;;;14.30;10.60;;;;;;;16.86;100.00;98222.48;109295;1253;58680;-79
2023/08/18 01:54:58;;;;;;;17.70;11.80;;;;;;;16.90;100.00;98220.01;109245;1254;57569;-80
2023/08/18 01:57:24;;;;;;;14.70;10.80;;;;;;;16.90;100.00;98222.75;109252;1254;57569;-80
2023/08/18 01:59:51;;;;;;;15.60;9.70;;;;;;;16.89;100.00;98224.04;109167;1254;72655;-80
2023/08/18 02:02:17;;;;;;;18.00;11.00;;;;;;;16.87;100.00;98229.48;109269;1254;58291;-80
2023/08/18 02:04:44;;;;;;;18.00;11.30;;;;;;;16.84;100.00;98230.75;109192;1253;58672;-79
2023/08/18 02:07:11;;;;;;;15.20;10.60;;;;;;;16.82;100.00;98233.69;109296;1253;58339;-80
2023/08/18 02:09:38;;;;;;;13.90;10.30;;;;;;;16.82;100.00;98229.48;109258;1253;71138;-80
2023/08/18 02:12:05;;;;;;;13.60;10.20;;;;;;;16.84;100.00;98226.70;109289;1253;72267;-79
2023/08/18 02:14:32;;;;;;;21.00;10.30;;;;;;;16.85;100.00;98226.58;109282;1253;59130;-80
2023/08/18 02:16:58;;;;;;;10.80;8.40;;;;;;;16.83;100.00;98223.94;109178;1253;58225;-79
2023/08/18 02:19:25;;;;;;;14.90;9.60;;;;;;;16.81;100.00;98223.84;109287;1253;58471;-80
2023/08/18 02:21:52;;;;;;;12.80;8.50;;;;;;;16.78;100.00;98221.35;109262;1254;70114;-80
2023/08/18 02:24:18;;;;;;;9.80;8.40;;;;;;;16.77;100.00;98218.70;109267;1253;71146;-79
2023/08/18 02:26:45;;;;;;;13.90;8.90;;;;;;;16.75;100.00;98221.33;109281;1253;58363;-80
2023/08/18 02:29:11;;;;;;;14.10;8.60;;;;;;;16.72;100.00;98221.19;109305;1253;58491;-80
2023/08/18 02:31:38;;;;;;;13.40;10.30;;;;;;;16.71;100.00;98220.61;109257;1254;74375;-79
2023/08/18 02:34:04;;;;;;;11.30;9.70;;;;;;;16.71;100.00;98220.99;109313;1254;58885;-80
2023/08/18 02:36:31;;;;;;;12.50;8.30;;;;;;;16.71;100.00;98220.28;109287;1253;58788;-80
2023/08/18 02:38:57;;;;;;;17.40;10.70;;;;;;;16.72;100.00;98218.23;109272;1253;58790;-80
2023/08/18 02:41:24;;;;;;;12.70;11.10;;;;;;;16.73;100.00;98219.90;109240;1253;58227;-80
2023/08/18 02:43:50;;;;;;;12.10;10.70;;;;;;;16.73;100.00;98216.33;109257;1253;58204;-80
2023/08/18 02:46:17;;;;;;;14.00;10.10;;;;;;;16.73;100.00;98215.40;109278;1254;58312;-80
2023/08/18 02:48:43;;;;;;;12.60;9.90;;;;;;;16.71;100.00;98211.86;109266;1253;58935;-80
2023/08/18 02:51:10;;;;;;;15.50;10.40;;;;;;;16.70;100.00;98213.17;109262;1254;58460;-79
2023/08/18 02:53:39;;;;;;;16.10;10.80;;;;;;;16.69;100.00;98210.75;109291;1253;58913;-80
2023/08/18 02:56:06;;;;;;;11.30;10.10;;;;;;;16.69;100.00;98215.90;109249;1254;73825;-80
2023/08/18 02:58:36;;;;;;;12.00;10.20;;;;;;;16.69;100.00;98218.64;109266;1253;70924;-80
2023/08/18 03:01:06;;;;;;;19.30;11.70;;;;;;;16.70;100.00;98220.42;109153;1254;71406;-80
2023/08/18 03:03:33;;;;;;;13.60;10.20;;;;;;;16.72;100.00;98219.10;109270;1253;60265;-80
2023/08/18 03:06:01;;;;;;;15.50;10.40;;;;;;;16.71;100.00;98223.77;109312;1253;59829;-80
2023/08/18 03:08:27;;;;;;;13.30;11.60;;;;;;;16.75;100.00;98218.05;109290;1253;72282;-80
2023/08/18 03:10:58;;;;;;;16.00;12.00;;;;;;;16.72;100.00;98216.96;109159;1253;58642;-80
2023/08/18 03:13:25;;;;;;;18.00;12.10;;;;;;;16.73;100.00;98215.46;109279;1253;72494;-80
2023/08/18 03:15:51;;;;;;;17.30;10.00;;;;;;;16.74;100.00;98217.56;109282;1253;58207;-80
2023/08/18 03:18:18;;;;;;;13.40;11.40;;;;;;;16.75;100.00;98219.63;109136;1253;61399;-80
2023/08/18 03:20:45;;;;;;;15.40;11.20;;;;;;;16.72;100.00;98219.86;109277;1253;73526;-80
2023/08/18 03:23:17;;;;;;;12.90;10.40;;;;;;;16.71;100.00;98222.02;109315;1253;70609;-80
2023/08/18 03:25:43;;;;;;;18.70;10.60;;;;;;;16.70;100.00;98214.52;109198;1253;73547;-80
2023/08/18 03:28:10;;;;;;;15.20;10.90;;;;;;;16.70;100.00;98215.94;109256;1253;58995;-80
2023/08/18 03:30:40;;;;;;;12.80;10.30;;;;;;;16.70;100.00;98210.50;109303;1253;59870;-80
2023/08/18 03:33:07;;;;;;;15.00;10.30;;;;;;;16.69;100.00;98213.33;109289;1253;73224;-79
2023/08/18 03:35:35;;;;;;;24.90;11.40;;;;;;;16.70;100.00;98211.89;109274;1253;71663;-80
2023/08/18 03:38:02;;;;;;;;;;;;;;;16.69;100.00;98212.63;109294;1253;72216;-80
2023/08/18 03:40:29;;;;;;;13.50;10.20;;;;;;;16.67;100.00;98212.04;109265;1253;58978;-79
2023/08/18 03:42:55;;;;;;;12.30;10.10;;;;;;;16.67;100.00;98211.88;109203;1253;58184;-79
2023/08/18 03:45:22;;;;;;;14.30;11.30;;;;;;;16.66;100.00;98204.84;109289;1253;58994;-79
2023/08/18 03:47:50;;;;;;;12.70;10.80;;;;;;;16.64;100.00;98203.60;109277;1253;58216;-79
2023/08/18 03:50:18;;;;;;;13.30;10.20;;;;;;;16.63;100.00;98203.70;109284;1252;72913;-79
2023/08/18 03:52:45;;;;;;;14.10;10.00;;;;;;;16.60;100.00;98208.66;109283;1253;58262;-79
2023/08/18 03:55:11;;;;;;;12.20;10.20;;;;;;;16.60;100.00;98208.34;109160;1253;60378;-79
2023/08/18 03:57:38;;;;;;;16.00;9.10;;;;;;;16.56;100.00;98214.00;109318;1253;58679;-79
2023/08/18 04:00:09;;;;;;;12.70;10.10;;;;;;;16.53;100.00;98213.66;109253;1253;58620;-79
2023/08/18 04:02:35;;;;;;;13.70;10.10;;;;;;;16.50;100.00;98214.14;109148;1254;72597;-79
2023/08/18 04:05:02;;;;;;;11.40;9.50;;;;;;;16.50;100.00;98216.55;109116;1253;58180;-79
2023/08/18 04:07:30;;;;;;;10.70;9.20;;;;;;;16.47;100.00;98218.89;109167;1254;60238;-79
2023/08/18 04:09:56;;;;;;;9.50;8.40;;;;;;;16.50;100.00;98219.27;109082;1254;74510;-79
2023/08/18 04:12:23;;;;;;;13.40;10.10;;;;;;;16.49;100.00;98220.77;109132;1253;58322;-79
2023/08/18 04:14:49;;;;;;;12.30;10.40;;;;;;;16.49;100.00;98216.66;109056;1253;58587;-79
2023/08/18 04:17:16;;;;;;;11.20;10.00;;;;;;;16.49;100.00;98214.74;109110;1254;58932;-79
2023/08/18 04:19:42;;;;;;;16.40;10.90;;;;;;;16.48;100.00;98212.18;109081;1254;58950;-79
2023/08/18 04:22:09;;;;;;;10.80;9.40;;;;;;;16.50;100.00;98212.70;109093;1256;58223;-79
2023/08/18 04:24:36;;;;;;;12.40;10.00;;;;;;;16.51;100.00;98213.12;109166;1253;70884;-80
2023/08/18 04:27:03;;;;;;;13.40;9.60;;;;;;;16.52;100.00;98204.85;109132;1253;72293;-80
2023/08/18 04:29:30;;;;;;;12.00;10.40;;;;;;;16.50;100.00;98209.05;109085;1254;59490;-80
2023/08/18 04:31:56;;;;;;;13.30;9.30;;;;;;;16.49;100.00;98204.02;109140;1253;58678;-80
2023/08/18 04:34:22;;;;;;;15.20;10.50;;;;;;;16.49;100.00;98203.48;109095;1253;58237;-80
2023/08/18 04:36:49;;;;;;;11.30;10.20;;;;;;;16.50;100.00;98197.58;109109;1254;58546;-80
2023/08/18 04:39:16;;;;;;;16.00;9.80;;;;;;;16.54;100.00;98200.95;109239;1252;58246;-80
2023/08/18 04:41:42;;;;;;;12.20;10.50;;;;;;;16.57;100.00;98200.03;109149;1253;59379;-81
2023/08/18 04:44:09;;;;;;;11.30;10.10;;;;;;;16.57;100.00;98205.45;109112;1253;59919;-80
2023/08/18 04:46:35;;;;;;;11.80;9.30;;;;;;;16.59;100.00;98206.02;109131;1253;58822;-80
2023/08/18 04:49:03;;;;;;;10.20;9.10;;;;;;;16.60;100.00;98202.31;109113;1253;58176;-79
2023/08/18 04:51:30;;;;;;;10.80;8.90;;;;;;;16.59;100.00;98199.16;109162;1253;71803;-80
2023/08/18 04:53:56;;;;;;;11.60;8.90;;;;;;;16.55;100.00;98199.39;109105;1254;58749;-80
2023/08/18 04:56:23;;;;;;;11.90;9.50;;;;;;;16.53;100.00;98203.05;109171;1253;58418;-79
2023/08/18 04:58:49;;;;;;;12.40;10.30;;;;;;;16.53;100.00;98205.85;109146;1253;58670;-80
2023/08/18 05:01:15;;;;;;;10.40;8.80;;;;;;;16.55;100.00;98208.95;109180;1254;58958;-80
2023/08/18 05:03:42;;;;;;;11.50;9.50;;;;;;;16.55;100.00;98206.72;109137;1254;58274;-79
2023/08/18 05:06:08;;;;;;;10.80;8.90;;;;;;;16.57;100.00;98206.67;109152;1254;58695;-80
2023/08/18 05:08:35;;;;;;;11.90;10.00;;;;;;;16.62;100.00;98209.43;109159;1254;58082;-79
2023/08/18 05:11:06;;;;;;;12.70;9.80;;;;;;;16.66;100.00;98207.58;109144;1253;73727;-79
2023/08/18 05:13:34;;;;;;;11.00;9.00;;;;;;;16.71;100.00;98212.63;109130;1253;72025;-79
2023/08/18 05:16:00;;;;;;;11.10;10.00;;;;;;;16.74;100.00;98214.56;109140;1253;72382;-80
2023/08/18 05:18:29;;;;;;;13.70;10.80;;;;;;;16.77;100.00;98217.16;109107;1254;58499;-80
2023/08/18 05:20:56;;;;;;;15.20;8.90;;;;;;;16.79;100.00;98223.39;109112;1253;59990;-80
2023/08/18 05:23:23;;;;;;;11.10;8.90;;;;;;;16.83;100.00;98224.17;109095;1253;73585;-80
2023/08/18 05:25:53;;;;;;;12.30;10.30;;;;;;;16.84;100.00;98221.19;109132;1254;71647;-80
2023/08/18 05:28:21;;;;;;;14.50;10.10;;;;;;;16.87;100.00;98223.84;109139;1254;71090;-80
2023/08/18 05:30:48;;;;;;;12.70;10.00;;;;;;;16.87;100.00;98221.81;109136;1253;58336;-80
2023/08/18 05:33:14;;;;;;;11.80;9.70;;;;;;;16.87;100.00;98221.27;109238;1252;58212;-80
2023/08/18 05:35:41;;;;;;;12.50;10.50;;;;;;;16.91;100.00;98218.89;109162;1254;73111;-80
2023/08/18 05:38:11;;;;;;;13.10;11.40;;;;;;;16.96;100.00;98215.44;109141;1253;69242;-80
2023/08/18 05:40:44;;;;;;;13.50;10.30;;;;;;;16.99;100.00;98212.45;109293;1253;72663;-80
2023/08/18 05:43:12;;;;;;;16.20;11.80;;;;;;;17.03;100.00;98213.88;109178;1254;58450;-80
2023/08/18 05:45:38;;;;;;;15.80;11.10;;;;;;;17.12;100.00;98214.20;109174;1253;59858;-80
2023/08/18 05:48:05;;;;;;;15.70;12.60;;;;;;;17.15;100.00;98213.78;109286;1253;58844;-80
2023/08/18 05:50:32;;;;;;;20.20;12.00;;;;;;;17.15;100.00;98214.04;109244;1253;70376;-80
2023/08/18 05:53:03;;;;;;;18.30;12.50;;;;;;;17.17;100.00;98220.46;109113;1254;72998;-80
2023/08/18 05:55:29;;;;;;;13.10;10.80;;;;;;;17.29;100.00;98223.91;109121;1254;58223;-80
2023/08/18 05:58:00;;;;;;;13.80;10.80;;;;;;;17.37;100.00;98221.42;109199;1253;58909;-82
2023/08/18 06:00:27;;;;;;;15.00;11.10;;;;;;;17.48;100.00;98226.31;109189;1253;73756;-80
2023/08/18 06:02:54;;;;;;;12.50;10.60;;;;;;;17.60;100.00;98223.20;109254;1253;69874;-80
2023/08/18 06:05:21;;;;;;;10.40;8.60;;;;;;;17.72;100.00;98223.41;109249;1252;72515;-80
2023/08/18 06:07:47;;;;;;;12.80;9.20;;;;;;;17.80;100.00;98217.70;109237;1253;58552;-80
2023/08/18 06:10:14;;;;;;;12.60;9.10;;;;;;;17.86;100.00;98217.23;109143;1254;58928;-80
2023/08/18 06:12:40;;;;;;;12.30;9.70;;;;;;;17.94;100.00;98222.02;109131;1253;58342;-81
2023/08/18 06:15:11;;;;;;;12.70;8.70;;;;;;;18.05;100.00;98220.95;109104;1253;70685;-80
2023/08/18 06:17:37;;;;;;;8.60;7.30;;;;;;;18.15;100.00;98222.56;109145;1253;73782;-80
2023/08/18 06:20:04;;;;;;;13.30;7.80;;;;;;;18.24;100.00;98224.58;109162;1253;58522;-80
2023/08/18 06:22:31;;;;;;;10.10;8.60;;;;;;;18.36;100.00;98220.44;109148;1253;59895;-80
2023/08/18 06:24:57;;;;;;;11.40;8.20;;;;;;;18.48;100.00;98216.90;109096;1253;74631;-80
2023/08/18 06:27:24;;;;;;;11.00;8.70;;;;;;;18.58;100.00;98213.95;109136;1253;70184;-81
2023/08/18 06:29:51;;;;;;;11.40;9.60;;;;;;;18.73;100.00;98217.91;109184;1253;58214;-80
2023/08/18 06:32:17;;;;;;;14.70;13.30;;;;;;;18.90;100.00;98219.02;109087;1254;59008;-80
2023/08/18 06:34:44;;;;;;;14.10;12.40;;;;;;;19.09;100.00;98221.98;109157;1253;58298;-80
2023/08/18 06:37:11;;;;;;;9.60;7.40;;;;;;;19.28;100.00;98214.12;109121;1253;72972;-80
2023/08/18 06:39:37;;;;;;;11.00;8.00;;;;;;;19.41;100.00;98214.48;109154;1253;58968;-80
2023/08/18 06:42:04;;;;;;;9.40;8.40;;;;;;;19.60;100.00;98216.11;109131;1253;59047;-80
2023/08/18 06:44:32;;;;;;;10.80;8.10;;;;;;;19.89;100.00;98218.77;109124;1253;58948;-81
2023/08/18 06:46:59;;;;;;;;;;;;;;;20.34;100.00;98221.39;109188;1253;60969;-80
2023/08/18 06:49:25;;;;;;;10.60;8.90;;;;;;;20.72;100.00;98220.67;109123;1253;58977;-81
2023/08/18 06:51:52;;;;;;;10.60;8.30;;;;;;;20.98;100.00;98224.64;109143;1253;58937;-80
2023/08/18 06:54:18;;;;;;;11.60;9.30;;;;;;;21.21;100.00;98226.65;109070;1253;58856;-80
2023/08/18 06:56:45;;;;;;;11.30;7.80;;;;;;;21.43;100.00;98228.63;109143;1253;59608;-81
2023/08/18 06:59:12;;;;;;;9.00;8.10;;;;;;;21.58;100.00;98226.58;109135;1253;58496;-80
2023/08/18 07:01:39;;;;;;;13.50;8.20;;;;;;;21.85;100.00;98231.16;109177;1254;73862;-80
2023/08/18 07:04:06;;;;;;;10.20;9.20;;;;;;;22.02;100.00;98227.96;109206;1253;70691;-81
2023/08/18 07:06:33;;;;;;;12.80;7.90;;;;;;;22.19;100.00;98226.21;109112;1253;72951;-81
2023/08/18 07:09:00;;;;;;;9.40;7.90;;;;;;;22.45;100.00;98229.75;109226;1253;58980;-80
2023/08/18 07:11:26;;;;;;;9.30;7.40;;;;;;;22.91;100.00;98226.42;109132;1252;61807;-81
2023/08/18 07:13:53;;;;;;;10.20;7.50;;;;;;;23.23;100.00;98224.56;109122;1253;74620;-80
2023/08/18 07:16:20;;;;;;;9.70;6.90;;;;;;;23.72;100.00;98222.31;109140;1253;69675;-80
2023/08/18 07:18:46;;;;;;;8.00;6.90;;;;;;;24.35;100.00;98226.41;109130;1253;58252;-82
2023/08/18 07:21:13;;;;;;;9.40;7.20;;;;;;;24.97;100.00;98225.61;109118;1253;59455;-81
2023/08/18 07:23:40;;;;;;;11.20;6.60;;;;;;;25.43;100.00;98231.30;109095;1254;60341;-81
2023/08/18 07:26:06;;;;;;;9.10;5.60;;;;;;;25.89;100.00;98235.80;109101;1254;73309;-81
2023/08/18 07:28:33;;;;;;;8.40;5.40;;;;;;;26.25;100.00;98237.06;109179;1254;58201;-81
2023/08/18 07:31:03;;;;;;;7.30;4.80;;;;;;;26.54;100.00;98241.15;109210;1254;58307;-81
2023/08/18 07:33:31;;;;;;;5.30;4.60;;;;;;;26.94;100.00;98239.50;109110;1254;58604;-81
2023/08/18 07:35:58;;;;;;;6.30;4.20;;;;;;;27.22;100.00;98232.55;108971;1253;61079;-81
2023/08/18 07:38:24;;;;;;;10.80;6.00;;;;;;;27.52;99.80;98229.60;109187;1254;73145;-81
2023/08/18 07:40:51;;;;;;;5.10;4.50;;;;;;;27.91;100.00;98226.30;109126;1254;59017;-81
2023/08/18 07:43:18;;;;;;;6.40;5.60;;;;;;;28.29;99.70;98224.80;109216;1254;73230;-81
2023/08/18 07:45:44;;;;;;;4.80;4.30;;;;;;;28.57;96.96;98228.98;109251;1254;58826;-81
2023/08/18 07:48:12;;;;;;;17.80;4.50;;;;;;;28.92;95.98;98227.64;109175;1254;58994;-81
2023/08/18 07:50:40;;;;;;;4.60;4.20;;;;;;;29.06;93.53;98225.52;109162;1253;73407;-81
2023/08/18 07:53:07;;;;;;;8.30;4.90;;;;;;;29.26;89.50;98227.66;109114;1253;72203;-81
2023/08/18 07:55:33;;;;;;;4.60;4.10;;;;;;;29.62;92.53;98228.22;109134;1253;58283;-81
2023/08/18 07:58:00;;;;;;;5.10;4.50;;;;;;;30.07;92.20;98228.36;109150;1254;58499;-81
2023/08/18 08:00:26;;;;;;;6.00;4.30;;;;;;;30.12;85.61;98230.18;109174;1254;59011;-81
2023/08/18 08:02:53;;;;;;;9.20;4.20;;;;;;;30.05;82.45;98229.65;109134;1254;58466;-81
2023/08/18 08:05:20;;;;;;;6.50;4.10;;;;;;;30.18;83.46;98230.83;109160;1253;58539;-81
2023/08/18 08:07:47;;;;;;;4.70;4.20;;;;;;;30.75;85.72;98231.50;109147;1253;73210;-81
2023/08/18 08:10:14;;;;;;;8.50;4.50;;;;;;;30.42;85.39;98229.19;109086;1254;59485;-81
2023/08/18 08:12:41;;;;;;;11.10;4.50;;;;;;;29.53;84.82;98228.99;109205;1254;58897;-81
2023/08/18 08:15:08;;;;;;;5.70;5.00;;;;;;;29.15;86.15;98230.14;109192;1253;73875;-81
2023/08/18 08:17:35;;;;;;;5.90;4.60;;;;;;;29.71;86.27;98234.91;109147;1253;70203;-81
2023/08/18 08:20:27;;;;;;;7.60;5.20;;;;;;;30.38;84.71;98230.00;109186;1253;58925;-81
2023/08/18 08:22:53;;;;;;;5.90;4.40;;;;;;;31.33;82.05;98232.23;109153;1253;58933;-80
2023/08/18 08:25:19;;;;;;;7.80;4.40;;;;;;;31.53;81.66;98232.70;109189;1254;58737;-81
2023/08/18 08:27:46;;;;;;;7.10;4.30;;;;;;;31.66;80.79;98233.38;109211;1254;58888;-81
2023/08/18 08:30:13;;;;;;;4.70;3.90;;;;;;;32.07;76.29;98231.20;109059;1253;58307;-81
2023/08/18 08:32:39;;;;;;;8.60;5.00;;;;;;;31.98;68.68;98229.79;109133;1253;64302;-81
2023/08/18 08:35:06;;;;;;;5.70;4.30;;;;;;;32.12;68.27;98234.34;109180;1252;58740;-82
2023/08/18 08:37:32;;;;;;;7.90;4.70;;;;;;;31.61;66.82;98234.71;109203;1253;58713;-81
2023/08/18 08:39:59;;;;;;;6.90;4.90;;;;;;;32.01;68.22;98230.23;109154;1254;59255;-81
2023/08/18 08:42:26;;;;;;;6.10;4.60;;;;;;;32.07;71.11;98227.13;109070;1256;71980;-81
2023/08/18 08:44:52;;;;;;;5.80;5.20;;;;;;;32.20;68.03;98226.98;109173;1254;65037;-81
2023/08/18 08:47:19;;;;;;;4.80;4.30;;;;;;;32.43;66.66;98227.11;109161;1253;58242;-82
2023/08/18 08:49:45;;;;;;;6.20;4.70;;;;;;;32.71;69.10;98226.55;109078;1254;58864;-82
2023/08/18 08:52:13;;;;;;;6.30;4.30;;;;;;;32.29;66.89;98229.59;108975;1253;72595;-82
2023/08/18 08:54:46;;;;;;;;;;;;;;;32.75;66.38;98230.83;109129;1253;62392;-82
2023/08/18 08:57:13;;;;;;;10.50;5.10;;;;;;;33.03;63.70;98225.64;109133;1254;72846;-82
2023/08/18 08:59:40;;;;;;;7.00;4.40;;;;;;;32.20;63.34;98225.85;109069;1253;58427;-82
2023/08/18 09:02:06;;;;;;;6.60;5.00;;;;;;;32.78;62.76;98224.63;109198;1254;58200;-82
2023/08/18 09:04:32;;;;;;;6.10;4.70;;;;;;;33.39;62.01;98230.48;109178;1253;58909;-82
2023/08/18 09:06:59;;;;;;;4.70;3.80;;;;;;;34.54;63.31;98230.77;109166;1253;58568;-82
2023/08/18 09:09:25;;;;;;;8.40;4.90;;;;;;;35.27;60.31;98232.16;109182;1253;58209;-82
2023/08/18 09:11:56;;;;;;;4.70;4.10;;;;;;;35.80;53.43;98234.92;109188;1253;58729;-82
2023/08/18 09:14:22;;;;;;;5.10;4.20;;;;;;;35.57;48.37;98231.56;108997;1253;58228;-82
2023/08/18 09:16:49;;;;;;;8.00;4.40;;;;;;;35.82;49.37;98229.63;109167;1253;58774;-82
2023/08/18 09:19:15;;;;;;;6.90;4.40;;;;;;;36.47;49.53;98228.73;109068;1254;58624;-82
2023/08/18 09:21:42;;;;;;;9.70;4.30;;;;;;;36.68;47.70;98228.75;109201;1253;58505;-82
2023/08/18 09:24:08;;;;;;;6.80;4.10;;;;;;;36.64;48.80;98224.66;109050;1254;58296;-82
2023/08/18 09:26:35;;;;;;;9.00;4.70;;;;;;;35.28;50.39;98227.58;109119;1252;58858;-82
2023/08/18 09:29:03;;;;;;;6.50;5.60;;;;;;;33.43;53.39;98223.11;109191;1254;74427;-81
2023/08/18 09:31:30;;;;;;;7.10;5.00;;;;;;;32.17;57.14;98219.79;109096;1254;69596;-81
2023/08/18 09:33:56;;;;;;;9.50;5.50;;;;;;;31.16;59.94;98220.33;109109;1254;65076;-81
2023/08/18 09:36:23;;;;;;;7.70;6.60;;;;;;;30.02;63.44;98212.62;109125;1254;58168;-81
2023/08/18 09:38:49;;;;;;;7.90;6.10;;;;;;;29.35;65.94;98209.56;108934;1254;58178;-81
2023/08/18 09:41:16;;;;;;;8.10;7.30;;;;;;;29.04;67.74;98210.44;109190;1253;58395;-81
2023/08/18 09:43:42;;;;;;;11.50;7.00;;;;;;;28.76;69.34;98213.24;109113;1254;58573;-82
2023/08/18 09:46:12;;;;;;;9.20;7.30;;;;;;;28.61;70.26;98212.02;109156;1253;73121;-81
2023/08/18 09:48:38;;;;;;;10.40;8.10;;;;;;;28.41;71.43;98211.59;109315;1253;58308;-82
2023/08/18 09:51:06;;;;;;;10.00;7.60;;;;;;;28.42;71.37;98210.93;109123;1256;59880;-81
2023/08/18 09:53:33;;;;;;;15.60;7.70;;;;;;;28.35;72.68;98208.94;109325;1254;72865;-81
2023/08/18 09:56:04;;;;;;;7.40;6.70;;;;;;;28.25;72.63;98207.52;109285;1252;69170;-81
2023/08/18 09:58:54;;;;;;;13.00;8.30;;;;;;;27.99;74.43;98207.80;109256;1253;73518;-81
2023/08/18 10:01:20;;;;;;;7.70;6.60;;;;;;;27.88;75.24;98204.88;109238;1252;58224;-81
2023/08/18 10:03:47;;;;;;;9.50;7.50;;;;;;;27.78;74.62;98203.88;109364;1256;59659;-81
2023/08/18 10:06:13;;;;;;;14.40;7.10;;;;;;;27.77;74.86;98202.20;109204;1253;58356;-81
2023/08/18 10:08:40;;;;;;;8.00;7.00;;;;;;;27.81;75.39;98201.83;109061;1253;59492;-81
2023/08/18 10:11:07;;;;;;;9.80;7.10;;;;;;;29.12;71.52;98205.49;109113;1253;157150;-81
2023/08/18 10:13:34;;;;;;;9.20;7.10;;;;;;;28.89;72.37;98205.06;109025;1253;58976;-81
2023/08/18 10:16:04;;;;;;;11.40;7.20;;;;;;;28.70;73.03;98199.22;109151;1253;59100;-81
2023/08/18 10:18:31;;;;;;;10.10;7.00;;;;;;;29.94;67.70;98202.77;109237;1253;72558;-81
2023/08/18 10:20:58;;;;;;;9.60;7.00;;;;;;;30.09;66.97;98202.98;109244;1254;69701;-82
2023/08/18 10:23:29;;;;;;;11.10;6.90;;;;;;;29.78;69.68;98206.10;109169;1254;71376;-81
2023/08/18 10:25:55;;;;;;;9.20;7.40;;;;;;;29.18;69.17;98207.09;109108;1253;59037;-82
2023/08/18 10:28:23;;;;;;;10.50;6.60;;;;;;;29.02;70.22;98209.81;109205;1253;58839;-81
2023/08/18 10:30:51;;;;;;;11.10;7.60;;;;;;;28.74;70.44;98206.88;109111;1252;72333;-82
2023/08/18 10:33:30;;;;;;;13.40;7.50;;;;;;;28.34;71.76;98204.38;109119;1253;72016;-81
2023/08/18 10:35:58;;;;;;;10.80;7.70;;;;;;;28.13;73.95;98203.33;109266;1253;73401;-81
2023/08/18 10:38:30;;;;;;;11.30;7.40;;;;;;;28.20;74.23;98206.14;109179;1254;58754;-81
2023/08/18 10:40:57;;;;;;;9.80;7.30;;;;;;;28.34;74.39;98203.89;109207;1254;59772;-81
2023/08/18 10:43:27;;;;;;;12.00;7.50;;;;;;;28.60;73.66;98207.73;109244;1254;73560;-81
2023/08/18 10:45:59;;;;;;;10.60;7.70;;;;;;;28.57;73.83;98210.98;109162;1254;71487;-81
2023/08/18 10:48:34;;;;;;;10.10;7.10;;;;;;;28.66;73.95;98208.46;109169;1254;73332;-81
2023/08/18 10:51:01;;;;;;;11.50;7.30;;;;;;;28.43;72.70;98204.89;109214;1253;58217;-81
2023/08/18 10:53:36;;;;;;;11.20;7.70;;;;;;;28.28;73.36;98201.65;109164;1253;61174;-81
2023/08/18 10:56:04;;;;;;;11.10;7.70;;;;;;;28.35;73.37;98198.50;109265;1253;73707;-82
2023/08/18 10:58:31;;;;;;;9.60;7.90;;;;;;;28.39;73.48;98199.87;108958;1254;69901;-81
2023/08/18 11:00:58;;;;;;;9.80;6.90;;;;;;;28.52;73.29;98199.50;109190;1253;73220;-82
2023/08/18 11:03:25;;;;;;;9.00;7.40;;;;;;;28.74;73.57;98193.17;109160;1253;58903;-81
2023/08/18 11:05:52;;;;;;;10.70;8.10;;;;;;;28.96;73.70;98196.09;109105;1254;59532;-81
2023/08/18 11:08:19;;;;;;;10.40;7.20;;;;;;;28.99;72.19;98197.30;109092;1254;73336;-81
2023/08/18 11:10:45;;;;;;;12.40;8.00;;;;;;;29.14;72.68;98197.39;109162;1253;58278;-81
2023/08/18 11:13:32;;;;;;;10.60;7.60;;;;;;;29.21;72.17;98194.58;109303;1253;72314;-81